sensor_id;sensor_type;location;lat;lon;timestamp;P1;durP1;ratioP1;P2;durP2;ratioP2
14872;SDS011;7528;48.576;19.122;2023-05-07T00:03:32;32.97;;;15.25;;
14872;SDS011;7528;48.576;19.122;2023-05-07T00:08:34;29.50;;;8.40;;
14872;SDS011;7528;48.576;19.122;2023-05-07T00:13:38;10.05;;;5.30;;
14872;SDS011;7528;48.576;19.122;2023-05-07T00:18:41;10.20;;;5.78;;
14872;SDS011;7528;48.576;19.122;2023-05-07T00:23:44;29.30;;;8.43;;
14872;SDS011;7528;48.576;19.122;2023-05-07T00:28:48;19.25;;;6.78;;
14872;SDS011;7528;48.576;19.122;2023-05-07T00:33:50;7.28;;;5.07;;
14872;SDS011;7528;48.576;19.122;2023-05-07T00:38:53;11.13;;;6.25;;
14872;SDS011;7528;48.576;19.122;2023-05-07T00:43:58;20.23;;;7.43;;
14872;SDS011;7528;48.576;19.122;2023-05-07T00:49:01;27.30;;;7.78;;
14872;SDS011;7528;48.576;19.122;2023-05-07T00:54:04;23.90;;;7.70;;
14872;SDS011;7528;48.576;19.122;2023-05-07T00:59:08;13.70;;;6.13;;
14872;SDS011;7528;48.576;19.122;2023-05-07T01:04:11;9.98;;;5.38;;
14872;SDS011;7528;48.576;19.122;2023-05-07T01:09:13;17.20;;;5.78;;
14872;SDS011;7528;48.576;19.122;2023-05-07T01:14:19;13.57;;;5.35;;
14872;SDS011;7528;48.576;19.122;2023-05-07T01:19:22;11.90;;;5.00;;
14872;SDS011;7528;48.576;19.122;2023-05-07T01:24:27;6.15;;;4.32;;
14872;SDS011;7528;48.576;19.122;2023-05-07T01:29:29;11.43;;;4.90;;
14872;SDS011;7528;48.576;19.122;2023-05-07T01:34:32;4.97;;;4.10;;
14872;SDS011;7528;48.576;19.122;2023-05-07T01:39:39;9.82;;;4.10;;
14872;SDS011;7528;48.576;19.122;2023-05-07T01:44:42;8.68;;;4.80;;
14872;SDS011;7528;48.576;19.122;2023-05-07T01:49:45;18.27;;;5.05;;
14872;SDS011;7528;48.576;19.122;2023-05-07T01:54:49;5.07;;;3.83;;
14872;SDS011;7528;48.576;19.122;2023-05-07T01:59:51;22.63;;;5.70;;
14872;SDS011;7528;48.576;19.122;2023-05-07T02:04:54;8.63;;;4.80;;
14872;SDS011;7528;48.576;19.122;2023-05-07T02:09:58;20.98;;;6.18;;
14872;SDS011;7528;48.576;19.122;2023-05-07T02:15:01;12.75;;;5.13;;
14872;SDS011;7528;48.576;19.122;2023-05-07T02:20:05;16.23;;;5.07;;
14872;SDS011;7528;48.576;19.122;2023-05-07T02:25:16;10.27;;;4.90;;
14872;SDS011;7528;48.576;19.122;2023-05-07T02:30:19;12.98;;;5.28;;
14872;SDS011;7528;48.576;19.122;2023-05-07T02:35:26;14.38;;;4.75;;
14872;SDS011;7528;48.576;19.122;2023-05-07T02:40:30;4.70;;;4.15;;
14872;SDS011;7528;48.576;19.122;2023-05-07T02:45:34;5.90;;;4.15;;
14872;SDS011;7528;48.576;19.122;2023-05-07T02:50:39;9.07;;;4.03;;
14872;SDS011;7528;48.576;19.122;2023-05-07T02:55:43;10.20;;;4.07;;
14872;SDS011;7528;48.576;19.122;2023-05-07T03:00:45;11.93;;;4.43;;
14872;SDS011;7528;48.576;19.122;2023-05-07T03:05:57;4.78;;;3.95;;
14872;SDS011;7528;48.576;19.122;2023-05-07T03:11:01;4.70;;;3.83;;
14872;SDS011;7528;48.576;19.122;2023-05-07T03:16:04;5.45;;;3.97;;
14872;SDS011;7528;48.576;19.122;2023-05-07T03:21:07;8.88;;;4.60;;
14872;SDS011;7528;48.576;19.122;2023-05-07T03:26:11;5.75;;;4.57;;
14872;SDS011;7528;48.576;19.122;2023-05-07T03:31:14;9.60;;;5.13;;
14872;SDS011;7528;48.576;19.122;2023-05-07T03:36:18;7.43;;;5.32;;
14872;SDS011;7528;48.576;19.122;2023-05-07T03:41:21;10.37;;;5.57;;
14872;SDS011;7528;48.576;19.122;2023-05-07T03:46:24;6.83;;;5.30;;
14872;SDS011;7528;48.576;19.122;2023-05-07T03:51:29;4.80;;;4.30;;
14872;SDS011;7528;48.576;19.122;2023-05-07T03:56:33;4.82;;;4.30;;
14872;SDS011;7528;48.576;19.122;2023-05-07T04:01:36;5.00;;;4.47;;
14872;SDS011;7528;48.576;19.122;2023-05-07T04:06:39;6.07;;;4.68;;
14872;SDS011;7528;48.576;19.122;2023-05-07T04:11:43;6.68;;;4.70;;
14872;SDS011;7528;48.576;19.122;2023-05-07T04:16:46;10.13;;;7.97;;
14872;SDS011;7528;48.576;19.122;2023-05-07T04:21:48;5.50;;;4.13;;
14872;SDS011;7528;48.576;19.122;2023-05-07T04:26:52;5.70;;;4.18;;
14872;SDS011;7528;48.576;19.122;2023-05-07T04:31:56;5.22;;;4.60;;
14872;SDS011;7528;48.576;19.122;2023-05-07T04:37:00;5.10;;;4.43;;
14872;SDS011;7528;48.576;19.122;2023-05-07T04:42:04;8.43;;;5.18;;
14872;SDS011;7528;48.576;19.122;2023-05-07T04:47:08;10.35;;;5.00;;
14872;SDS011;7528;48.576;19.122;2023-05-07T04:52:11;9.05;;;5.30;;
14872;SDS011;7528;48.576;19.122;2023-05-07T04:57:16;5.85;;;5.03;;
14872;SDS011;7528;48.576;19.122;2023-05-07T05:02:19;9.02;;;5.25;;
14872;SDS011;7528;48.576;19.122;2023-05-07T05:07:22;12.57;;;6.68;;
14872;SDS011;7528;48.576;19.122;2023-05-07T05:12:28;8.93;;;6.30;;
14872;SDS011;7528;48.576;19.122;2023-05-07T05:17:32;7.93;;;6.95;;
14872;SDS011;7528;48.576;19.122;2023-05-07T05:22:38;9.52;;;6.25;;
14872;SDS011;7528;48.576;19.122;2023-05-07T05:27:43;7.30;;;5.70;;
14872;SDS011;7528;48.576;19.122;2023-05-07T05:32:47;8.45;;;6.13;;
14872;SDS011;7528;48.576;19.122;2023-05-07T05:37:49;9.55;;;6.35;;
14872;SDS011;7528;48.576;19.122;2023-05-07T05:42:54;9.07;;;6.95;;
14872;SDS011;7528;48.576;19.122;2023-05-07T05:47:58;8.48;;;6.65;;
14872;SDS011;7528;48.576;19.122;2023-05-07T05:53:00;9.20;;;7.28;;
14872;SDS011;7528;48.576;19.122;2023-05-07T05:58:05;8.75;;;6.85;;
14872;SDS011;7528;48.576;19.122;2023-05-07T06:03:11;8.20;;;7.22;;
14872;SDS011;7528;48.576;19.122;2023-05-07T06:08:14;11.77;;;9.88;;
14872;SDS011;7528;48.576;19.122;2023-05-07T06:13:19;17.73;;;13.73;;
14872;SDS011;7528;48.576;19.122;2023-05-07T06:18:22;16.38;;;13.27;;
14872;SDS011;7528;48.576;19.122;2023-05-07T06:23:26;17.33;;;15.38;;
14872;SDS011;7528;48.576;19.122;2023-05-07T06:28:30;18.10;;;14.23;;
14872;SDS011;7528;48.576;19.122;2023-05-07T06:33:37;18.02;;;15.13;;
14872;SDS011;7528;48.576;19.122;2023-05-07T06:38:41;17.35;;;15.25;;
14872;SDS011;7528;48.576;19.122;2023-05-07T06:43:45;17.95;;;15.68;;
14872;SDS011;7528;48.576;19.122;2023-05-07T06:49:05;17.80;;;14.43;;
14872;SDS011;7528;48.576;19.122;2023-05-07T06:54:08;16.23;;;13.38;;
14872;SDS011;7528;48.576;19.122;2023-05-07T06:59:14;15.85;;;13.80;;
14872;SDS011;7528;48.576;19.122;2023-05-07T07:04:18;15.50;;;12.85;;
14872;SDS011;7528;48.576;19.122;2023-05-07T07:09:28;14.77;;;13.18;;
14872;SDS011;7528;48.576;19.122;2023-05-07T07:14:33;14.20;;;12.68;;
14872;SDS011;7528;48.576;19.122;2023-05-07T08:32:15;7.80;;;7.10;;
14872;SDS011;7528;48.576;19.122;2023-05-07T08:37:17;5.65;;;5.15;;
14872;SDS011;7528;48.576;19.122;2023-05-07T08:42:20;5.95;;;5.45;;
14872;SDS011;7528;48.576;19.122;2023-05-07T08:47:27;6.30;;;5.78;;
14872;SDS011;7528;48.576;19.122;2023-05-07T08:52:36;6.57;;;5.70;;
14872;SDS011;7528;48.576;19.122;2023-05-07T08:57:39;4.95;;;4.55;;
14872;SDS011;7528;48.576;19.122;2023-05-07T09:02:44;4.25;;;3.65;;
14872;SDS011;7528;48.576;19.122;2023-05-07T09:07:47;3.58;;;3.28;;
14872;SDS011;7528;48.576;19.122;2023-05-07T09:12:51;3.88;;;3.58;;
14872;SDS011;7528;48.576;19.122;2023-05-07T09:17:55;4.68;;;3.25;;
14872;SDS011;7528;48.576;19.122;2023-05-07T09:23:03;4.95;;;3.70;;
14872;SDS011;7528;48.576;19.122;2023-05-07T09:28:08;3.67;;;3.35;;
14872;SDS011;7528;48.576;19.122;2023-05-07T09:33:12;3.42;;;3.13;;
14872;SDS011;7528;48.576;19.122;2023-05-07T09:38:20;3.53;;;3.22;;
14872;SDS011;7528;48.576;19.122;2023-05-07T09:43:27;3.67;;;3.38;;
14872;SDS011;7528;48.576;19.122;2023-05-07T09:48:38;3.78;;;3.40;;
14872;SDS011;7528;48.576;19.122;2023-05-07T09:53:43;3.20;;;3.00;;
14872;SDS011;7528;48.576;19.122;2023-05-07T09:58:48;3.67;;;2.83;;
14872;SDS011;7528;48.576;19.122;2023-05-07T10:03:56;3.90;;;3.00;;
14872;SDS011;7528;48.576;19.122;2023-05-07T10:09:00;2.90;;;2.67;;
14872;SDS011;7528;48.576;19.122;2023-05-07T10:14:03;3.05;;;2.75;;
14872;SDS011;7528;48.576;19.122;2023-05-07T10:19:09;2.60;;;2.40;;
14872;SDS011;7528;48.576;19.122;2023-05-07T10:24:19;3.30;;;3.00;;
14872;SDS011;7528;48.576;19.122;2023-05-07T10:29:26;5.18;;;2.83;;
14872;SDS011;7528;48.576;19.122;2023-05-07T10:34:40;3.58;;;3.28;;
14872;SDS011;7528;48.576;19.122;2023-05-07T10:39:47;3.97;;;3.60;;
14872;SDS011;7528;48.576;19.122;2023-05-07T10:44:50;3.58;;;3.15;;
14872;SDS011;7528;48.576;19.122;2023-05-07T10:55:29;3.30;;;2.85;;
14872;SDS011;7528;48.576;19.122;2023-05-07T11:00:43;4.07;;;3.33;;
14872;SDS011;7528;48.576;19.122;2023-05-07T11:11:46;3.72;;;3.30;;
14872;SDS011;7528;48.576;19.122;2023-05-07T11:17:19;3.83;;;3.45;;
14872;SDS011;7528;48.576;19.122;2023-05-07T11:22:37;3.25;;;3.00;;
14872;SDS011;7528;48.576;19.122;2023-05-07T11:28:04;4.05;;;3.40;;
14872;SDS011;7528;48.576;19.122;2023-05-07T11:33:08;3.67;;;3.30;;
14872;SDS011;7528;48.576;19.122;2023-05-07T11:38:14;3.92;;;3.00;;
14872;SDS011;7528;48.576;19.122;2023-05-07T11:43:16;6.07;;;3.45;;
14872;SDS011;7528;48.576;19.122;2023-05-07T11:48:19;3.17;;;2.97;;
14872;SDS011;7528;48.576;19.122;2023-05-07T11:53:25;5.18;;;3.17;;
14872;SDS011;7528;48.576;19.122;2023-05-07T11:58:28;3.40;;;3.10;;
14872;SDS011;7528;48.576;19.122;2023-05-07T12:03:31;4.07;;;3.40;;
14872;SDS011;7528;48.576;19.122;2023-05-07T12:08:35;4.07;;;3.03;;
14872;SDS011;7528;48.576;19.122;2023-05-07T12:13:38;3.45;;;3.08;;
14872;SDS011;7528;48.576;19.122;2023-05-07T12:18:42;3.05;;;2.85;;
14872;SDS011;7528;48.576;19.122;2023-05-07T12:23:47;3.33;;;3.05;;
14872;SDS011;7528;48.576;19.122;2023-05-07T12:28:50;3.83;;;3.20;;
14872;SDS011;7528;48.576;19.122;2023-05-07T12:33:52;2.97;;;2.78;;
14872;SDS011;7528;48.576;19.122;2023-05-07T12:38:56;3.40;;;3.10;;
14872;SDS011;7528;48.576;19.122;2023-05-07T12:43:59;3.10;;;2.90;;
14872;SDS011;7528;48.576;19.122;2023-05-07T12:49:01;3.58;;;3.15;;
14872;SDS011;7528;48.576;19.122;2023-05-07T12:54:05;3.20;;;3.00;;
14872;SDS011;7528;48.576;19.122;2023-05-07T12:59:08;3.10;;;2.90;;
14872;SDS011;7528;48.576;19.122;2023-05-07T13:04:11;3.33;;;3.03;;
14872;SDS011;7528;48.576;19.122;2023-05-07T13:09:14;3.20;;;2.90;;
14872;SDS011;7528;48.576;19.122;2023-05-07T13:14:17;3.58;;;3.00;;
14872;SDS011;7528;48.576;19.122;2023-05-07T13:19:21;3.70;;;3.30;;
14872;SDS011;7528;48.576;19.122;2023-05-07T13:24:25;3.33;;;3.13;;
14872;SDS011;7528;48.576;19.122;2023-05-07T13:29:27;3.85;;;3.55;;
14872;SDS011;7528;48.576;19.122;2023-05-07T13:34:30;3.67;;;3.13;;
14872;SDS011;7528;48.576;19.122;2023-05-07T13:39:34;4.28;;;3.88;;
14872;SDS011;7528;48.576;19.122;2023-05-07T13:44:36;4.10;;;3.80;;
14872;SDS011;7528;48.576;19.122;2023-05-07T13:49:39;3.67;;;3.38;;
14872;SDS011;7528;48.576;19.122;2023-05-07T13:54:42;3.60;;;3.30;;
14872;SDS011;7528;48.576;19.122;2023-05-07T13:59:45;4.53;;;4.13;;
14872;SDS011;7528;48.576;19.122;2023-05-07T14:04:47;4.03;;;3.63;;
14872;SDS011;7528;48.576;19.122;2023-05-07T14:09:51;3.90;;;3.60;;
14872;SDS011;7528;48.576;19.122;2023-05-07T14:14:54;4.18;;;3.88;;
14872;SDS011;7528;48.576;19.122;2023-05-07T14:19:56;4.13;;;3.72;;
14872;SDS011;7528;48.576;19.122;2023-05-07T14:25:01;4.65;;;4.25;;
14872;SDS011;7528;48.576;19.122;2023-05-07T14:30:04;4.93;;;4.53;;
14872;SDS011;7528;48.576;19.122;2023-05-07T14:35:08;5.88;;;4.88;;
14872;SDS011;7528;48.576;19.122;2023-05-07T14:40:13;4.32;;;3.92;;
14872;SDS011;7528;48.576;19.122;2023-05-07T14:45:16;4.95;;;4.47;;
14872;SDS011;7528;48.576;19.122;2023-05-07T14:50:18;4.57;;;4.18;;
14872;SDS011;7528;48.576;19.122;2023-05-07T14:55:22;4.72;;;4.32;;
14872;SDS011;7528;48.576;19.122;2023-05-07T15:00:25;6.03;;;5.43;;
14872;SDS011;7528;48.576;19.122;2023-05-07T15:05:27;4.60;;;4.20;;
14872;SDS011;7528;48.576;19.122;2023-05-07T15:10:33;5.25;;;4.70;;
14872;SDS011;7528;48.576;19.122;2023-05-07T15:15:41;4.25;;;3.95;;
14872;SDS011;7528;48.576;19.122;2023-05-07T15:20:45;5.15;;;4.68;;
14872;SDS011;7528;48.576;19.122;2023-05-07T15:25:48;4.40;;;4.00;;
14872;SDS011;7528;48.576;19.122;2023-05-07T15:30:51;4.55;;;4.05;;
14872;SDS011;7528;48.576;19.122;2023-05-07T15:35:53;4.32;;;3.92;;
14872;SDS011;7528;48.576;19.122;2023-05-07T15:41:00;4.25;;;3.85;;
14872;SDS011;7528;48.576;19.122;2023-05-07T15:46:03;3.95;;;3.65;;
14872;SDS011;7528;48.576;19.122;2023-05-07T15:51:05;4.03;;;3.67;;
14872;SDS011;7528;48.576;19.122;2023-05-07T15:56:10;4.05;;;3.65;;
14872;SDS011;7528;48.576;19.122;2023-05-07T16:01:13;3.97;;;3.65;;
14872;SDS011;7528;48.576;19.122;2023-05-07T16:06:15;3.60;;;3.30;;
14872;SDS011;7528;48.576;19.122;2023-05-07T16:11:19;4.13;;;3.40;;
14872;SDS011;7528;48.576;19.122;2023-05-07T16:16:21;4.07;;;3.67;;
14872;SDS011;7528;48.576;19.122;2023-05-07T16:21:26;4.13;;;3.83;;
14872;SDS011;7528;48.576;19.122;2023-05-07T16:26:30;3.95;;;3.60;;
14872;SDS011;7528;48.576;19.122;2023-05-07T16:31:32;4.00;;;3.70;;
14872;SDS011;7528;48.576;19.122;2023-05-07T16:36:34;3.97;;;3.63;;
14872;SDS011;7528;48.576;19.122;2023-05-07T16:41:39;5.22;;;3.60;;
14872;SDS011;7528;48.576;19.122;2023-05-07T16:46:41;3.63;;;3.33;;
14872;SDS011;7528;48.576;19.122;2023-05-07T16:51:43;3.90;;;3.33;;
14872;SDS011;7528;48.576;19.122;2023-05-07T16:56:47;3.90;;;3.60;;
14872;SDS011;7528;48.576;19.122;2023-05-07T17:01:51;4.05;;;3.75;;
14872;SDS011;7528;48.576;19.122;2023-05-07T17:06:53;3.92;;;3.50;;
14872;SDS011;7528;48.576;19.122;2023-05-07T17:11:57;3.65;;;3.35;;
14872;SDS011;7528;48.576;19.122;2023-05-07T17:17:00;4.45;;;4.05;;
14872;SDS011;7528;48.576;19.122;2023-05-07T17:22:02;3.50;;;3.20;;
14872;SDS011;7528;48.576;19.122;2023-05-07T17:27:06;2.83;;;2.63;;
14872;SDS011;7528;48.576;19.122;2023-05-07T17:32:09;3.20;;;2.97;;
14872;SDS011;7528;48.576;19.122;2023-05-07T17:37:11;3.58;;;2.75;;
14872;SDS011;7528;48.576;19.122;2023-05-07T17:42:16;3.17;;;2.92;;
14872;SDS011;7528;48.576;19.122;2023-05-07T17:47:18;2.70;;;2.50;;
14872;SDS011;7528;48.576;19.122;2023-05-07T17:52:20;3.15;;;2.70;;
14872;SDS011;7528;48.576;19.122;2023-05-07T17:57:24;3.00;;;2.80;;
14872;SDS011;7528;48.576;19.122;2023-05-07T18:02:28;3.00;;;2.70;;
14872;SDS011;7528;48.576;19.122;2023-05-07T18:07:31;2.55;;;2.35;;
14872;SDS011;7528;48.576;19.122;2023-05-07T18:12:34;4.30;;;3.90;;
14872;SDS011;7528;48.576;19.122;2023-05-07T18:17:37;4.05;;;3.65;;
14872;SDS011;7528;48.576;19.122;2023-05-07T18:22:40;3.63;;;3.33;;
14872;SDS011;7528;48.576;19.122;2023-05-07T18:27:44;3.50;;;3.20;;
14872;SDS011;7528;48.576;19.122;2023-05-07T18:32:46;3.80;;;3.50;;
14872;SDS011;7528;48.576;19.122;2023-05-07T18:37:49;3.95;;;3.65;;
14872;SDS011;7528;48.576;19.122;2023-05-07T18:42:53;2.60;;;2.40;;
14872;SDS011;7528;48.576;19.122;2023-05-07T18:47:55;3.45;;;2.45;;
14872;SDS011;7528;48.576;19.122;2023-05-07T18:52:57;2.53;;;2.33;;
14872;SDS011;7528;48.576;19.122;2023-05-07T18:58:01;2.88;;;2.67;;
14872;SDS011;7528;48.576;19.122;2023-05-07T19:03:04;2.95;;;2.63;;
14872;SDS011;7528;48.576;19.122;2023-05-07T19:08:06;3.28;;;2.70;;
14872;SDS011;7528;48.576;19.122;2023-05-07T19:13:10;3.22;;;2.50;;
14872;SDS011;7528;48.576;19.122;2023-05-07T19:18:12;2.90;;;2.70;;
14872;SDS011;7528;48.576;19.122;2023-05-07T19:23:15;3.03;;;2.80;;
14872;SDS011;7528;48.576;19.122;2023-05-07T19:28:19;2.95;;;2.60;;
14872;SDS011;7528;48.576;19.122;2023-05-07T19:33:21;4.63;;;3.00;;
14872;SDS011;7528;48.576;19.122;2023-05-07T19:38:24;3.10;;;2.60;;
14872;SDS011;7528;48.576;19.122;2023-05-07T19:43:28;3.03;;;2.47;;
14872;SDS011;7528;48.576;19.122;2023-05-07T19:48:35;4.30;;;3.05;;
14872;SDS011;7528;48.576;19.122;2023-05-07T19:53:37;3.50;;;3.20;;
14872;SDS011;7528;48.576;19.122;2023-05-07T19:58:41;4.20;;;3.70;;
14872;SDS011;7528;48.576;19.122;2023-05-07T20:03:44;5.35;;;4.50;;
14872;SDS011;7528;48.576;19.122;2023-05-07T20:08:48;3.33;;;3.03;;
14872;SDS011;7528;48.576;19.122;2023-05-07T20:13:53;6.10;;;5.50;;
14872;SDS011;7528;48.576;19.122;2023-05-07T20:18:55;6.65;;;4.55;;
14872;SDS011;7528;48.576;19.122;2023-05-07T20:23:58;6.75;;;5.75;;
14872;SDS011;7528;48.576;19.122;2023-05-07T20:29:02;5.10;;;4.03;;
14872;SDS011;7528;48.576;19.122;2023-05-07T20:34:05;6.30;;;5.70;;
14872;SDS011;7528;48.576;19.122;2023-05-07T20:39:08;4.00;;;3.70;;
14872;SDS011;7528;48.576;19.122;2023-05-07T20:44:15;3.92;;;3.63;;
14872;SDS011;7528;48.576;19.122;2023-05-07T20:49:18;4.32;;;3.95;;
14872;SDS011;7528;48.576;19.122;2023-05-07T20:54:22;4.32;;;4.00;;
14872;SDS011;7528;48.576;19.122;2023-05-07T20:59:28;3.88;;;3.58;;
14872;SDS011;7528;48.576;19.122;2023-05-07T21:04:34;4.68;;;3.55;;
14872;SDS011;7528;48.576;19.122;2023-05-07T21:09:36;3.78;;;3.42;;
14872;SDS011;7528;48.576;19.122;2023-05-07T21:14:40;4.20;;;3.80;;
14872;SDS011;7528;48.576;19.122;2023-05-07T21:19:43;3.85;;;3.45;;
14872;SDS011;7528;48.576;19.122;2023-05-07T21:24:47;4.22;;;3.83;;
14872;SDS011;7528;48.576;19.122;2023-05-07T21:29:52;4.20;;;3.42;;
14872;SDS011;7528;48.576;19.122;2023-05-07T21:35:04;4.13;;;3.83;;
14872;SDS011;7528;48.576;19.122;2023-05-07T21:40:08;4.53;;;3.70;;
14872;SDS011;7528;48.576;19.122;2023-05-07T21:45:13;4.35;;;3.80;;
14872;SDS011;7528;48.576;19.122;2023-05-07T21:50:15;4.10;;;3.80;;
14872;SDS011;7528;48.576;19.122;2023-05-07T21:55:18;4.28;;;3.88;;
14872;SDS011;7528;48.576;19.122;2023-05-07T22:00:21;5.78;;;3.63;;
14872;SDS011;7528;48.576;19.122;2023-05-07T22:05:24;3.90;;;3.47;;
14872;SDS011;7528;48.576;19.122;2023-05-07T22:10:26;3.88;;;3.58;;
14872;SDS011;7528;48.576;19.122;2023-05-07T22:15:31;4.85;;;4.38;;
14872;SDS011;7528;48.576;19.122;2023-05-07T22:20:33;4.20;;;3.80;;
14872;SDS011;7528;48.576;19.122;2023-05-07T22:25:36;3.90;;;3.60;;
14872;SDS011;7528;48.576;19.122;2023-05-07T22:30:40;4.35;;;3.88;;
14872;SDS011;7528;48.576;19.122;2023-05-07T22:35:42;4.38;;;3.97;;
14872;SDS011;7528;48.576;19.122;2023-05-07T22:40:45;4.53;;;4.13;;
14872;SDS011;7528;48.576;19.122;2023-05-07T22:45:49;4.63;;;4.00;;
14872;SDS011;7528;48.576;19.122;2023-05-07T22:50:58;4.60;;;4.20;;
14872;SDS011;7528;48.576;19.122;2023-05-07T22:56:02;4.28;;;3.88;;
14872;SDS011;7528;48.576;19.122;2023-05-07T23:01:11;4.50;;;4.10;;
14872;SDS011;7528;48.576;19.122;2023-05-07T23:06:15;4.40;;;4.00;;
14872;SDS011;7528;48.576;19.122;2023-05-07T23:11:17;4.40;;;4.00;;
14872;SDS011;7528;48.576;19.122;2023-05-07T23:16:21;5.33;;;4.17;;
14872;SDS011;7528;48.576;19.122;2023-05-07T23:21:25;4.50;;;4.10;;
14872;SDS011;7528;48.576;19.122;2023-05-07T23:26:27;4.37;;;3.97;;
14872;SDS011;7528;48.576;19.122;2023-05-07T23:31:31;4.50;;;4.10;;
14872;SDS011;7528;48.576;19.122;2023-05-07T23:36:34;4.30;;;3.90;;
14872;SDS011;7528;48.576;19.122;2023-05-07T23:41:37;5.53;;;4.23;;
14872;SDS011;7528;48.576;19.122;2023-05-07T23:46:41;4.07;;;3.77;;
14872;SDS011;7528;48.576;19.122;2023-05-07T23:51:44;4.77;;;4.37;;
14872;SDS011;7528;48.576;19.122;2023-05-07T23:56:46;4.33;;;3.93;;
